This is the latest recevied weather packets stored in our database for station/object W4MJZ-1. If no packets are shown the sender has not sent any weather packets the latest 1 day(s).
| Time | Temp. | Humidity | Pressure | Rain* | Wind** | Luminosity | Snow |
|---|---|---|---|---|---|---|---|
| 1778081091 | 17.22° C | 45% | 1023.3 hPa | 0 mm | - | - | - |
| 1778080940 | 17.22° C | 45% | 1023.3 hPa | 0 mm | - | - | - |
| 1778078721 | 18.33° C | 43% | 1023.3 hPa | 0 mm | - | - | - |
| 1778077339 | 18.33° C | 41% | 1023.3 hPa | 0 mm | - | - | - |
| 1778077039 | 17.22° C | 43% | 1023.7 hPa | 0 mm | - | - | - |
| 1778075539 | 15.56° C | 50% | 1023.3 hPa | 0 mm | - | - | - |
| 1778074407 | 13.33° C | 64% | 1023.3 hPa | 0 mm | - | - | - |
| 1778074039 | 12.78° C | 68% | 1023.3 hPa | 0 mm | - | - | - |
| 1778073820 | 11.67° C | 71% | 1023.3 hPa | 0 mm | - | - | - |
| 1778073739 | 11.67° C | 71% | 1023.3 hPa | 0 mm | - | - | - |
| 1778073439 | 10.56° C | 76% | 1023.3 hPa | 0 mm | - | - | - |
| 1778073139 | 10° C | 79% | 1023.3 hPa | 0 mm | - | - | - |
| 1778072658 | 8.89° C | 84% | 1022.9 hPa | 0 mm | - | - | - |
| 1778072239 | 8.33° C | 84% | 1023.3 hPa | 0 mm | - | - | - |
| 1778071449 | 8.33° C | 84% | 1022.9 hPa | 0 mm | - | - | - |
| 1778070546 | 8.33° C | 83% | 1022.9 hPa | 0 mm | - | - | - |
| 1778070440 | 8.33° C | 83% | 1022.9 hPa | 0 mm | - | - | - |
| 1778069957 | 8.33° C | 82% | 1022.9 hPa | 0 mm | - | - | - |
| 1778069839 | 8.33° C | 82% | 1022.9 hPa | 0 mm | - | - | - |
| 1778069738 | 8.33° C | 82% | 1022.6 hPa | 0 mm | - | - | - |
| 1778069539 | 8.33° C | 82% | 1022.6 hPa | 0 mm | - | - | - |
| 1778068939 | 8.33° C | 83% | 1022.6 hPa | 0 mm | - | - | - |
| 1778068742 | 8.33° C | 83% | 1022.6 hPa | 0 mm | - | - | - |
| 1778068639 | 8.33° C | 83% | 1022.6 hPa | 0 mm | - | - | - |
| 1778067924 | 8.89° C | 81% | 1022.6 hPa | 0 mm | - | - | - |
* Rain latest hour (hover to see other rain measurements)
** Current wind speed in m/s (hover to see current wind gust speed)